sensor_id;sensor_type;location;lat;lon;timestamp;temperature;humidity
3923;DHT22;1976;51.694;6.256;2023-11-19T00:00:16;12.60;99.90
3923;DHT22;1976;51.694;6.256;2023-11-19T00:02:42;12.70;99.90
3923;DHT22;1976;51.694;6.256;2023-11-19T00:05:08;12.70;99.90
3923;DHT22;1976;51.694;6.256;2023-11-19T00:07:38;12.70;99.90
3923;DHT22;1976;51.694;6.256;2023-11-19T00:10:14;12.70;99.90
3923;DHT22;1976;51.694;6.256;2023-11-19T00:12:45;12.70;99.90
3923;DHT22;1976;51.694;6.256;2023-11-19T00:15:12;12.70;99.90
3923;DHT22;1976;51.694;6.256;2023-11-19T00:17:39;12.80;99.90
3923;DHT22;1976;51.694;6.256;2023-11-19T00:20:18;12.80;99.90
3923;DHT22;1976;51.694;6.256;2023-11-19T00:22:44;12.80;99.90
3923;DHT22;1976;51.694;6.256;2023-11-19T00:25:13;12.80;99.90
3923;DHT22;1976;51.694;6.256;2023-11-19T00:27:39;12.80;99.90
3923;DHT22;1976;51.694;6.256;2023-11-19T00:30:05;12.80;99.90
3923;DHT22;1976;51.694;6.256;2023-11-19T00:32:34;12.80;99.90
3923;DHT22;1976;51.694;6.256;2023-11-19T00:35:01;12.90;99.90
3923;DHT22;1976;51.694;6.256;2023-11-19T00:37:28;12.80;99.90
3923;DHT22;1976;51.694;6.256;2023-11-19T00:39:53;12.80;99.90
3923;DHT22;1976;51.694;6.256;2023-11-19T00:42:20;12.80;99.90
3923;DHT22;1976;51.694;6.256;2023-11-19T00:44:45;12.80;99.90
3923;DHT22;1976;51.694;6.256;2023-11-19T00:47:11;12.80;99.90
3923;DHT22;1976;51.694;6.256;2023-11-19T00:49:37;12.90;99.90
3923;DHT22;1976;51.694;6.256;2023-11-19T00:52:02;12.90;99.90
3923;DHT22;1976;51.694;6.256;2023-11-19T00:54:28;12.90;99.90
3923;DHT22;1976;51.694;6.256;2023-11-19T00:56:54;13.00;99.90
3923;DHT22;1976;51.694;6.256;2023-11-19T00:59:19;13.00;99.90
3923;DHT22;1976;51.694;6.256;2023-11-19T01:01:45;13.00;99.90
3923;DHT22;1976;51.694;6.256;2023-11-19T01:04:10;13.10;99.90
3923;DHT22;1976;51.694;6.256;2023-11-19T01:06:36;13.00;99.90
3923;DHT22;1976;51.694;6.256;2023-11-19T01:09:02;13.00;99.90
3923;DHT22;1976;51.694;6.256;2023-11-19T01:11:27;13.00;99.90
3923;DHT22;1976;51.694;6.256;2023-11-19T01:13:53;13.00;99.90
3923;DHT22;1976;51.694;6.256;2023-11-19T01:16:20;13.00;99.90
3923;DHT22;1976;51.694;6.256;2023-11-19T01:18:49;13.00;99.90
3923;DHT22;1976;51.694;6.256;2023-11-19T01:21:15;13.00;99.90
3923;DHT22;1976;51.694;6.256;2023-11-19T01:23:42;13.10;99.90
3923;DHT22;1976;51.694;6.256;2023-11-19T01:26:11;13.10;99.90
3923;DHT22;1976;51.694;6.256;2023-11-19T01:28:39;13.10;99.90
3923;DHT22;1976;51.694;6.256;2023-11-19T01:31:05;13.00;99.90
3923;DHT22;1976;51.694;6.256;2023-11-19T01:33:35;13.00;99.90
3923;DHT22;1976;51.694;6.256;2023-11-19T01:36:01;13.00;99.90
3923;DHT22;1976;51.694;6.256;2023-11-19T01:38:27;13.00;99.90
3923;DHT22;1976;51.694;6.256;2023-11-19T01:40:56;13.10;99.90
3923;DHT22;1976;51.694;6.256;2023-11-19T01:43:36;13.10;99.90
3923;DHT22;1976;51.694;6.256;2023-11-19T01:46:05;13.00;99.90
3923;DHT22;1976;51.694;6.256;2023-11-19T01:48:34;13.10;99.90
3923;DHT22;1976;51.694;6.256;2023-11-19T01:51:01;13.10;99.90
3923;DHT22;1976;51.694;6.256;2023-11-19T01:53:28;13.10;99.90
3923;DHT22;1976;51.694;6.256;2023-11-19T01:55:54;13.10;99.90
3923;DHT22;1976;51.694;6.256;2023-11-19T01:58:21;13.10;99.90
3923;DHT22;1976;51.694;6.256;2023-11-19T02:00:48;13.10;99.90
3923;DHT22;1976;51.694;6.256;2023-11-19T02:03:14;13.10;99.90
3923;DHT22;1976;51.694;6.256;2023-11-19T02:05:40;13.20;99.90
3923;DHT22;1976;51.694;6.256;2023-11-19T02:08:06;13.20;99.90
3923;DHT22;1976;51.694;6.256;2023-11-19T02:10:32;13.20;99.90
3923;DHT22;1976;51.694;6.256;2023-11-19T02:12:58;13.30;99.90
3923;DHT22;1976;51.694;6.256;2023-11-19T02:15:24;13.30;99.90
3923;DHT22;1976;51.694;6.256;2023-11-19T02:17:50;13.40;99.90
3923;DHT22;1976;51.694;6.256;2023-11-19T02:20:16;13.40;99.90
3923;DHT22;1976;51.694;6.256;2023-11-19T02:22:42;13.50;99.90
3923;DHT22;1976;51.694;6.256;2023-11-19T02:25:17;13.50;99.90
3923;DHT22;1976;51.694;6.256;2023-11-19T02:30:16;13.60;99.90
3923;DHT22;1976;51.694;6.256;2023-11-19T02:32:42;13.60;99.90
3923;DHT22;1976;51.694;6.256;2023-11-19T02:35:08;13.60;99.90
3923;DHT22;1976;51.694;6.256;2023-11-19T02:37:38;13.70;99.90
3923;DHT22;1976;51.694;6.256;2023-11-19T02:40:04;13.60;99.90
3923;DHT22;1976;51.694;6.256;2023-11-19T02:42:31;13.70;99.90
3923;DHT22;1976;51.694;6.256;2023-11-19T02:44:57;13.70;99.90
3923;DHT22;1976;51.694;6.256;2023-11-19T02:47:23;13.60;99.90
3923;DHT22;1976;51.694;6.256;2023-11-19T02:49:49;13.60;99.90
3923;DHT22;1976;51.694;6.256;2023-11-19T02:52:15;13.70;99.90
3923;DHT22;1976;51.694;6.256;2023-11-19T02:54:42;13.60;99.90
3923;DHT22;1976;51.694;6.256;2023-11-19T02:57:08;13.60;99.90
3923;DHT22;1976;51.694;6.256;2023-11-19T02:59:38;13.50;99.90
3923;DHT22;1976;51.694;6.256;2023-11-19T03:02:08;13.50;99.90
3923;DHT22;1976;51.694;6.256;2023-11-19T03:04:37;13.40;99.90
3923;DHT22;1976;51.694;6.256;2023-11-19T03:07:08;13.50;99.90
3923;DHT22;1976;51.694;6.256;2023-11-19T03:09:33;13.40;99.90
3923;DHT22;1976;51.694;6.256;2023-11-19T03:12:03;13.40;99.90
3923;DHT22;1976;51.694;6.256;2023-11-19T03:14:33;13.50;99.90
3923;DHT22;1976;51.694;6.256;2023-11-19T03:17:00;13.50;99.90
3923;DHT22;1976;51.694;6.256;2023-11-19T03:19:26;13.60;99.90
3923;DHT22;1976;51.694;6.256;2023-11-19T03:21:52;13.70;99.90
3923;DHT22;1976;51.694;6.256;2023-11-19T03:24:18;13.70;99.90
3923;DHT22;1976;51.694;6.256;2023-11-19T03:26:48;13.70;99.90
3923;DHT22;1976;51.694;6.256;2023-11-19T03:29:15;13.70;99.90
3923;DHT22;1976;51.694;6.256;2023-11-19T03:31:44;13.70;99.90
3923;DHT22;1976;51.694;6.256;2023-11-19T03:34:10;13.70;99.90
3923;DHT22;1976;51.694;6.256;2023-11-19T03:36:36;13.70;99.90
3923;DHT22;1976;51.694;6.256;2023-11-19T03:39:01;13.60;99.90
3923;DHT22;1976;51.694;6.256;2023-11-19T03:41:28;13.60;99.90
3923;DHT22;1976;51.694;6.256;2023-11-19T03:43:54;13.50;99.90
3923;DHT22;1976;51.694;6.256;2023-11-19T03:46:21;13.60;99.90
3923;DHT22;1976;51.694;6.256;2023-11-19T03:48:50;13.60;99.90
3923;DHT22;1976;51.694;6.256;2023-11-19T03:51:16;13.60;99.90
3923;DHT22;1976;51.694;6.256;2023-11-19T03:53:46;13.60;99.90
3923;DHT22;1976;51.694;6.256;2023-11-19T03:56:12;13.50;99.90
3923;DHT22;1976;51.694;6.256;2023-11-19T03:58:38;13.40;99.90
3923;DHT22;1976;51.694;6.256;2023-11-19T04:01:05;13.40;99.90
3923;DHT22;1976;51.694;6.256;2023-11-19T04:03:30;13.40;99.90
3923;DHT22;1976;51.694;6.256;2023-11-19T04:05:56;13.20;99.90
3923;DHT22;1976;51.694;6.256;2023-11-19T04:08:22;13.20;99.90
3923;DHT22;1976;51.694;6.256;2023-11-19T04:10:47;13.10;99.90
3923;DHT22;1976;51.694;6.256;2023-11-19T04:13:13;13.10;99.90
3923;DHT22;1976;51.694;6.256;2023-11-19T04:15:39;13.10;99.90
3923;DHT22;1976;51.694;6.256;2023-11-19T04:18:04;12.90;99.90
3923;DHT22;1976;51.694;6.256;2023-11-19T04:20:30;12.80;99.90
3923;DHT22;1976;51.694;6.256;2023-11-19T04:22:57;12.70;99.90
3923;DHT22;1976;51.694;6.256;2023-11-19T04:25:22;12.60;99.90
3923;DHT22;1976;51.694;6.256;2023-11-19T04:27:49;12.60;99.90
3923;DHT22;1976;51.694;6.256;2023-11-19T04:30:15;12.50;99.90
3923;DHT22;1976;51.694;6.256;2023-11-19T04:32:40;12.50;99.90
3923;DHT22;1976;51.694;6.256;2023-11-19T04:35:07;12.40;99.90
3923;DHT22;1976;51.694;6.256;2023-11-19T04:37:32;12.40;99.90
3923;DHT22;1976;51.694;6.256;2023-11-19T04:39:58;12.40;99.90
3923;DHT22;1976;51.694;6.256;2023-11-19T04:42:25;12.40;99.90
3923;DHT22;1976;51.694;6.256;2023-11-19T04:44:50;12.30;99.90
3923;DHT22;1976;51.694;6.256;2023-11-19T04:47:16;12.30;99.90
3923;DHT22;1976;51.694;6.256;2023-11-19T04:49:42;12.30;99.90
3923;DHT22;1976;51.694;6.256;2023-11-19T04:52:10;12.20;99.90
3923;DHT22;1976;51.694;6.256;2023-11-19T04:54:41;12.20;99.90
3923;DHT22;1976;51.694;6.256;2023-11-19T04:57:07;12.30;99.90
3923;DHT22;1976;51.694;6.256;2023-11-19T04:59:35;12.20;99.90
3923;DHT22;1976;51.694;6.256;2023-11-19T05:02:00;12.20;99.90
3923;DHT22;1976;51.694;6.256;2023-11-19T05:04:26;12.10;99.90
3923;DHT22;1976;51.694;6.256;2023-11-19T05:06:51;12.20;99.90
3923;DHT22;1976;51.694;6.256;2023-11-19T05:09:17;12.20;99.90
3923;DHT22;1976;51.694;6.256;2023-11-19T05:11:43;12.20;99.90
3923;DHT22;1976;51.694;6.256;2023-11-19T05:14:09;12.20;99.90
3923;DHT22;1976;51.694;6.256;2023-11-19T05:16:34;12.20;99.90
3923;DHT22;1976;51.694;6.256;2023-11-19T05:19:00;12.30;99.90
3923;DHT22;1976;51.694;6.256;2023-11-19T05:21:26;12.20;99.90
3923;DHT22;1976;51.694;6.256;2023-11-19T05:23:51;12.30;99.90
3923;DHT22;1976;51.694;6.256;2023-11-19T05:26:18;12.30;99.90
3923;DHT22;1976;51.694;6.256;2023-11-19T05:28:45;12.30;99.90
3923;DHT22;1976;51.694;6.256;2023-11-19T05:31:10;12.30;99.90
3923;DHT22;1976;51.694;6.256;2023-11-19T05:33:36;12.30;99.90
3923;DHT22;1976;51.694;6.256;2023-11-19T05:36:02;12.40;99.90
3923;DHT22;1976;51.694;6.256;2023-11-19T05:38:29;12.30;99.90
3923;DHT22;1976;51.694;6.256;2023-11-19T05:40:55;12.20;99.90
3923;DHT22;1976;51.694;6.256;2023-11-19T05:43:20;12.20;99.90
3923;DHT22;1976;51.694;6.256;2023-11-19T05:45:46;12.20;99.90
3923;DHT22;1976;51.694;6.256;2023-11-19T05:48:12;12.20;99.90
3923;DHT22;1976;51.694;6.256;2023-11-19T05:50:38;12.10;99.90
3923;DHT22;1976;51.694;6.256;2023-11-19T05:53:04;12.00;99.90
3923;DHT22;1976;51.694;6.256;2023-11-19T05:55:38;12.00;99.90
3923;DHT22;1976;51.694;6.256;2023-11-19T05:58:12;12.10;99.90
3923;DHT22;1976;51.694;6.256;2023-11-19T06:00:38;12.10;99.90
3923;DHT22;1976;51.694;6.256;2023-11-19T06:03:06;12.10;99.90
3923;DHT22;1976;51.694;6.256;2023-11-19T06:05:32;11.90;99.90
3923;DHT22;1976;51.694;6.256;2023-11-19T06:07:57;12.00;99.90
3923;DHT22;1976;51.694;6.256;2023-11-19T06:10:23;11.90;99.90
3923;DHT22;1976;51.694;6.256;2023-11-19T06:12:54;11.90;99.90
3923;DHT22;1976;51.694;6.256;2023-11-19T06:15:22;12.00;99.90
3923;DHT22;1976;51.694;6.256;2023-11-19T06:17:48;12.00;99.90
3923;DHT22;1976;51.694;6.256;2023-11-19T06:20:13;12.00;99.90
3923;DHT22;1976;51.694;6.256;2023-11-19T06:22:39;12.00;99.90
3923;DHT22;1976;51.694;6.256;2023-11-19T06:25:08;12.00;99.90
3923;DHT22;1976;51.694;6.256;2023-11-19T06:27:33;12.10;99.90
3923;DHT22;1976;51.694;6.256;2023-11-19T06:30:00;12.10;99.90
3923;DHT22;1976;51.694;6.256;2023-11-19T06:32:26;12.20;99.90
3923;DHT22;1976;51.694;6.256;2023-11-19T06:34:51;12.10;99.90
3923;DHT22;1976;51.694;6.256;2023-11-19T06:37:17;12.00;99.90
3923;DHT22;1976;51.694;6.256;2023-11-19T06:39:42;12.00;99.90
3923;DHT22;1976;51.694;6.256;2023-11-19T06:42:08;12.00;99.90
3923;DHT22;1976;51.694;6.256;2023-11-19T06:44:34;12.00;99.90
3923;DHT22;1976;51.694;6.256;2023-11-19T06:46:59;12.00;99.90
3923;DHT22;1976;51.694;6.256;2023-11-19T06:49:25;12.00;99.90
3923;DHT22;1976;51.694;6.256;2023-11-19T06:51:51;11.90;99.90
3923;DHT22;1976;51.694;6.256;2023-11-19T06:54:16;11.90;99.90
3923;DHT22;1976;51.694;6.256;2023-11-19T06:56:42;11.80;99.90
3923;DHT22;1976;51.694;6.256;2023-11-19T06:59:08;11.90;99.90
3923;DHT22;1976;51.694;6.256;2023-11-19T07:01:37;11.90;99.90
3923;DHT22;1976;51.694;6.256;2023-11-19T07:04:03;11.90;99.90
3923;DHT22;1976;51.694;6.256;2023-11-19T07:06:35;11.90;99.90
3923;DHT22;1976;51.694;6.256;2023-11-19T07:09:02;11.90;99.90
3923;DHT22;1976;51.694;6.256;2023-11-19T07:11:41;11.90;99.90
3923;DHT22;1976;51.694;6.256;2023-11-19T07:14:07;11.90;99.90
3923;DHT22;1976;51.694;6.256;2023-11-19T07:16:34;11.90;99.90
3923;DHT22;1976;51.694;6.256;2023-11-19T07:19:00;12.00;99.90
3923;DHT22;1976;51.694;6.256;2023-11-19T07:21:26;12.00;99.90
3923;DHT22;1976;51.694;6.256;2023-11-19T07:23:54;12.00;99.90
3923;DHT22;1976;51.694;6.256;2023-11-19T07:26:20;12.00;99.90
3923;DHT22;1976;51.694;6.256;2023-11-19T07:28:47;12.00;99.90
3923;DHT22;1976;51.694;6.256;2023-11-19T07:31:13;12.00;99.90
3923;DHT22;1976;51.694;6.256;2023-11-19T07:33:39;12.00;99.90
3923;DHT22;1976;51.694;6.256;2023-11-19T07:36:08;12.00;99.90
3923;DHT22;1976;51.694;6.256;2023-11-19T07:38:34;12.00;99.90
3923;DHT22;1976;51.694;6.256;2023-11-19T07:41:00;12.00;99.90
3923;DHT22;1976;51.694;6.256;2023-11-19T07:43:26;12.10;99.90
3923;DHT22;1976;51.694;6.256;2023-11-19T07:45:51;12.20;99.90
3923;DHT22;1976;51.694;6.256;2023-11-19T07:48:17;12.20;99.90
3923;DHT22;1976;51.694;6.256;2023-11-19T07:50:48;12.30;99.90
3923;DHT22;1976;51.694;6.256;2023-11-19T07:53:16;12.40;99.90
3923;DHT22;1976;51.694;6.256;2023-11-19T07:55:41;12.40;99.90
3923;DHT22;1976;51.694;6.256;2023-11-19T07:58:07;12.50;99.90
3923;DHT22;1976;51.694;6.256;2023-11-19T08:00:33;12.50;99.90
3923;DHT22;1976;51.694;6.256;2023-11-19T08:02:58;12.50;99.90
3923;DHT22;1976;51.694;6.256;2023-11-19T08:05:24;12.50;99.90
3923;DHT22;1976;51.694;6.256;2023-11-19T08:07:52;12.60;99.90
3923;DHT22;1976;51.694;6.256;2023-11-19T08:10:19;12.70;99.90
3923;DHT22;1976;51.694;6.256;2023-11-19T08:12:45;12.70;99.90
3923;DHT22;1976;51.694;6.256;2023-11-19T08:15:11;12.80;99.90
3923;DHT22;1976;51.694;6.256;2023-11-19T08:17:37;12.70;99.90
3923;DHT22;1976;51.694;6.256;2023-11-19T08:20:03;12.80;99.90
3923;DHT22;1976;51.694;6.256;2023-11-19T08:22:30;12.80;99.90
3923;DHT22;1976;51.694;6.256;2023-11-19T08:24:56;13.10;99.90
3923;DHT22;1976;51.694;6.256;2023-11-19T08:27:22;13.30;99.90
3923;DHT22;1976;51.694;6.256;2023-11-19T08:29:54;13.50;99.90
3923;DHT22;1976;51.694;6.256;2023-11-19T08:32:31;13.70;99.90
3923;DHT22;1976;51.694;6.256;2023-11-19T08:34:56;13.90;99.90
3923;DHT22;1976;51.694;6.256;2023-11-19T08:37:22;14.00;99.90
3923;DHT22;1976;51.694;6.256;2023-11-19T08:39:48;14.00;99.90
3923;DHT22;1976;51.694;6.256;2023-11-19T08:42:14;14.10;99.90
3923;DHT22;1976;51.694;6.256;2023-11-19T08:44:41;14.20;99.90
3923;DHT22;1976;51.694;6.256;2023-11-19T08:47:12;14.20;99.90
3923;DHT22;1976;51.694;6.256;2023-11-19T08:49:39;14.30;99.90
3923;DHT22;1976;51.694;6.256;2023-11-19T08:52:05;14.40;99.90
3923;DHT22;1976;51.694;6.256;2023-11-19T08:54:33;14.30;99.90
3923;DHT22;1976;51.694;6.256;2023-11-19T08:56:59;14.20;99.90
3923;DHT22;1976;51.694;6.256;2023-11-19T08:59:25;14.30;99.90
3923;DHT22;1976;51.694;6.256;2023-11-19T09:01:51;14.30;99.90
3923;DHT22;1976;51.694;6.256;2023-11-19T09:04:17;14.00;99.90
3923;DHT22;1976;51.694;6.256;2023-11-19T09:06:42;13.80;99.90
3923;DHT22;1976;51.694;6.256;2023-11-19T09:09:09;13.70;99.90
3923;DHT22;1976;51.694;6.256;2023-11-19T09:11:35;13.80;99.90
3923;DHT22;1976;51.694;6.256;2023-11-19T09:14:02;13.80;99.90
3923;DHT22;1976;51.694;6.256;2023-11-19T09:16:28;13.70;99.90
3923;DHT22;1976;51.694;6.256;2023-11-19T09:18:53;13.80;99.90
3923;DHT22;1976;51.694;6.256;2023-11-19T09:21:19;13.90;99.90
3923;DHT22;1976;51.694;6.256;2023-11-19T09:23:45;13.70;99.90
3923;DHT22;1976;51.694;6.256;2023-11-19T09:26:13;13.70;99.90
3923;DHT22;1976;51.694;6.256;2023-11-19T09:28:39;13.70;99.90
3923;DHT22;1976;51.694;6.256;2023-11-19T09:31:16;13.70;99.90
3923;DHT22;1976;51.694;6.256;2023-11-19T09:33:42;13.50;99.90
3923;DHT22;1976;51.694;6.256;2023-11-19T09:36:08;13.50;99.90
3923;DHT22;1976;51.694;6.256;2023-11-19T09:38:34;13.40;99.90
3923;DHT22;1976;51.694;6.256;2023-11-19T09:41:05;13.30;99.90
3923;DHT22;1976;51.694;6.256;2023-11-19T09:43:34;13.20;99.90
3923;DHT22;1976;51.694;6.256;2023-11-19T09:46:08;13.20;99.90
3923;DHT22;1976;51.694;6.256;2023-11-19T09:48:37;13.20;99.90
3923;DHT22;1976;51.694;6.256;2023-11-19T09:51:04;13.10;99.90
3923;DHT22;1976;51.694;6.256;2023-11-19T09:53:30;13.20;99.90
3923;DHT22;1976;51.694;6.256;2023-11-19T09:55:58;13.20;99.90
3923;DHT22;1976;51.694;6.256;2023-11-19T09:58:26;13.30;99.90
3923;DHT22;1976;51.694;6.256;2023-11-19T10:00:51;13.30;99.90
3923;DHT22;1976;51.694;6.256;2023-11-19T10:03:17;13.40;99.90
3923;DHT22;1976;51.694;6.256;2023-11-19T10:05:43;13.40;99.90
3923;DHT22;1976;51.694;6.256;2023-11-19T10:08:09;13.50;99.90
3923;DHT22;1976;51.694;6.256;2023-11-19T10:10:36;13.60;99.90
3923;DHT22;1976;51.694;6.256;2023-11-19T10:13:02;13.60;99.90
3923;DHT22;1976;51.694;6.256;2023-11-19T10:15:36;13.60;99.90
3923;DHT22;1976;51.694;6.256;2023-11-19T10:18:02;13.60;99.90
3923;DHT22;1976;51.694;6.256;2023-11-19T10:20:27;13.70;99.90
3923;DHT22;1976;51.694;6.256;2023-11-19T10:22:54;13.70;99.90
3923;DHT22;1976;51.694;6.256;2023-11-19T10:25:27;13.70;99.90
3923;DHT22;1976;51.694;6.256;2023-11-19T10:27:54;13.70;99.90
3923;DHT22;1976;51.694;6.256;2023-11-19T10:30:28;13.70;99.90
3923;DHT22;1976;51.694;6.256;2023-11-19T10:33:13;13.60;99.90
3923;DHT22;1976;51.694;6.256;2023-11-19T10:35:53;13.60;99.90
3923;DHT22;1976;51.694;6.256;2023-11-19T10:38:20;13.60;99.90
3923;DHT22;1976;51.694;6.256;2023-11-19T10:40:47;13.60;99.90
3923;DHT22;1976;51.694;6.256;2023-11-19T10:43:13;13.70;99.90
3923;DHT22;1976;51.694;6.256;2023-11-19T10:45:40;13.80;99.90
3923;DHT22;1976;51.694;6.256;2023-11-19T10:48:06;13.90;99.90
3923;DHT22;1976;51.694;6.256;2023-11-19T10:50:33;13.90;99.90
3923;DHT22;1976;51.694;6.256;2023-11-19T10:53:00;14.00;99.90
3923;DHT22;1976;51.694;6.256;2023-11-19T10:55:34;13.90;99.90
3923;DHT22;1976;51.694;6.256;2023-11-19T10:58:08;13.80;99.90
3923;DHT22;1976;51.694;6.256;2023-11-19T11:00:51;13.80;99.90
3923;DHT22;1976;51.694;6.256;2023-11-19T11:03:19;13.90;99.90
3923;DHT22;1976;51.694;6.256;2023-11-19T11:05:49;13.90;99.90
3923;DHT22;1976;51.694;6.256;2023-11-19T11:08:16;13.90;99.90
3923;DHT22;1976;51.694;6.256;2023-11-19T11:13:18;13.80;99.90
3923;DHT22;1976;51.694;6.256;2023-11-19T11:15:45;14.00;99.90
3923;DHT22;1976;51.694;6.256;2023-11-19T11:18:13;14.20;99.90
3923;DHT22;1976;51.694;6.256;2023-11-19T11:20:39;14.50;99.90
3923;DHT22;1976;51.694;6.256;2023-11-19T11:34:33;15.60;99.90
3923;DHT22;1976;51.694;6.256;2023-11-19T11:39:39;14.90;99.90
3923;DHT22;1976;51.694;6.256;2023-11-19T11:45:00;14.60;99.90
3923;DHT22;1976;51.694;6.256;2023-11-19T11:47:26;14.90;99.90
3923;DHT22;1976;51.694;6.256;2023-11-19T11:49:52;14.90;99.90
3923;DHT22;1976;51.694;6.256;2023-11-19T11:52:19;14.90;99.90
3923;DHT22;1976;51.694;6.256;2023-11-19T11:54:45;14.90;99.90
3923;DHT22;1976;51.694;6.256;2023-11-19T11:57:12;15.00;99.90
3923;DHT22;1976;51.694;6.256;2023-11-19T12:02:11;14.60;99.90
3923;DHT22;1976;51.694;6.256;2023-11-19T12:04:39;14.50;99.90
3923;DHT22;1976;51.694;6.256;2023-11-19T12:07:06;14.50;99.90
3923;DHT22;1976;51.694;6.256;2023-11-19T12:09:32;14.60;99.90
3923;DHT22;1976;51.694;6.256;2023-11-19T12:12:21;14.60;99.90
3923;DHT22;1976;51.694;6.256;2023-11-19T12:15:10;14.40;99.90
3923;DHT22;1976;51.694;6.256;2023-11-19T12:17:37;14.10;99.90
3923;DHT22;1976;51.694;6.256;2023-11-19T12:20:06;14.00;99.90
3923;DHT22;1976;51.694;6.256;2023-11-19T12:22:37;13.90;99.90
3923;DHT22;1976;51.694;6.256;2023-11-19T12:25:04;13.70;99.90
3923;DHT22;1976;51.694;6.256;2023-11-19T12:27:30;13.40;99.90
3923;DHT22;1976;51.694;6.256;2023-11-19T12:29:56;13.10;99.90
3923;DHT22;1976;51.694;6.256;2023-11-19T12:32:22;13.00;99.90
3923;DHT22;1976;51.694;6.256;2023-11-19T12:34:48;12.80;99.90
3923;DHT22;1976;51.694;6.256;2023-11-19T12:37:14;12.70;99.90
3923;DHT22;1976;51.694;6.256;2023-11-19T12:39:39;12.80;99.90
3923;DHT22;1976;51.694;6.256;2023-11-19T12:42:05;14.90;99.90
3923;DHT22;1976;51.694;6.256;2023-11-19T12:44:31;13.30;99.90
3923;DHT22;1976;51.694;6.256;2023-11-19T12:47:04;13.90;99.90
3923;DHT22;1976;51.694;6.256;2023-11-19T12:49:31;14.70;99.90
3923;DHT22;1976;51.694;6.256;2023-11-19T12:51:56;14.60;99.90
3923;DHT22;1976;51.694;6.256;2023-11-19T12:54:37;14.60;99.90
3923;DHT22;1976;51.694;6.256;2023-11-19T12:57:04;14.40;99.90
3923;DHT22;1976;51.694;6.256;2023-11-19T12:59:30;14.20;99.90
3923;DHT22;1976;51.694;6.256;2023-11-19T13:01:56;13.90;99.90
3923;DHT22;1976;51.694;6.256;2023-11-19T13:04:22;13.90;99.90
3923;DHT22;1976;51.694;6.256;2023-11-19T13:06:50;13.80;99.90
3923;DHT22;1976;51.694;6.256;2023-11-19T13:09:26;14.20;99.90
3923;DHT22;1976;51.694;6.256;2023-11-19T13:11:52;14.90;99.90
3923;DHT22;1976;51.694;6.256;2023-11-19T13:14:18;15.60;99.90
3923;DHT22;1976;51.694;6.256;2023-11-19T13:16:44;16.00;99.90
3923;DHT22;1976;51.694;6.256;2023-11-19T13:19:15;15.70;99.90
3923;DHT22;1976;51.694;6.256;2023-11-19T13:21:45;15.30;99.90
3923;DHT22;1976;51.694;6.256;2023-11-19T13:24:13;14.90;99.90
3923;DHT22;1976;51.694;6.256;2023-11-19T13:26:39;14.60;99.90
3923;DHT22;1976;51.694;6.256;2023-11-19T13:29:05;14.40;99.90
3923;DHT22;1976;51.694;6.256;2023-11-19T13:31:30;14.20;99.90
3923;DHT22;1976;51.694;6.256;2023-11-19T13:33:56;14.70;99.90
3923;DHT22;1976;51.694;6.256;2023-11-19T13:36:23;15.00;99.90
3923;DHT22;1976;51.694;6.256;2023-11-19T13:38:49;15.00;99.90
3923;DHT22;1976;51.694;6.256;2023-11-19T13:41:15;14.70;99.90
3923;DHT22;1976;51.694;6.256;2023-11-19T13:43:41;14.40;99.90
3923;DHT22;1976;51.694;6.256;2023-11-19T13:46:06;14.20;99.90
3923;DHT22;1976;51.694;6.256;2023-11-19T13:48:34;14.10;99.90
3923;DHT22;1976;51.694;6.256;2023-11-19T13:51:00;14.00;99.90
3923;DHT22;1976;51.694;6.256;2023-11-19T13:53:26;13.70;99.90
3923;DHT22;1976;51.694;6.256;2023-11-19T13:55:51;13.30;99.90
3923;DHT22;1976;51.694;6.256;2023-11-19T13:58:18;13.10;99.90
3923;DHT22;1976;51.694;6.256;2023-11-19T14:00:44;12.80;99.90
3923;DHT22;1976;51.694;6.256;2023-11-19T14:03:10;12.70;99.90
3923;DHT22;1976;51.694;6.256;2023-11-19T14:05:39;12.70;99.90
3923;DHT22;1976;51.694;6.256;2023-11-19T14:08:06;12.60;99.90
3923;DHT22;1976;51.694;6.256;2023-11-19T14:10:39;12.60;99.90
3923;DHT22;1976;51.694;6.256;2023-11-19T14:13:06;12.50;99.90
3923;DHT22;1976;51.694;6.256;2023-11-19T14:15:32;12.60;99.90
3923;DHT22;1976;51.694;6.256;2023-11-19T14:17:57;13.10;99.90
3923;DHT22;1976;51.694;6.256;2023-11-19T14:20:23;13.60;99.90
3923;DHT22;1976;51.694;6.256;2023-11-19T14:22:48;13.90;99.90
3923;DHT22;1976;51.694;6.256;2023-11-19T14:25:15;13.70;99.90
3923;DHT22;1976;51.694;6.256;2023-11-19T14:27:42;13.40;99.90
3923;DHT22;1976;51.694;6.256;2023-11-19T14:30:14;13.40;99.90
3923;DHT22;1976;51.694;6.256;2023-11-19T14:32:41;13.40;99.90
3923;DHT22;1976;51.694;6.256;2023-11-19T14:35:09;13.20;99.90
3923;DHT22;1976;51.694;6.256;2023-11-19T14:37:35;13.10;99.90
3923;DHT22;1976;51.694;6.256;2023-11-19T14:40:01;13.10;99.90
3923;DHT22;1976;51.694;6.256;2023-11-19T14:42:30;13.00;99.90
3923;DHT22;1976;51.694;6.256;2023-11-19T14:44:56;12.90;99.90
3923;DHT22;1976;51.694;6.256;2023-11-19T14:47:22;12.80;99.90
3923;DHT22;1976;51.694;6.256;2023-11-19T14:49:47;12.80;99.90
3923;DHT22;1976;51.694;6.256;2023-11-19T14:52:13;12.70;99.90
3923;DHT22;1976;51.694;6.256;2023-11-19T14:54:39;12.70;99.90
3923;DHT22;1976;51.694;6.256;2023-11-19T14:57:06;12.60;99.90
3923;DHT22;1976;51.694;6.256;2023-11-19T14:59:33;12.60;99.90
3923;DHT22;1976;51.694;6.256;2023-11-19T15:01:59;12.60;99.90
3923;DHT22;1976;51.694;6.256;2023-11-19T15:04:26;12.60;99.90
3923;DHT22;1976;51.694;6.256;2023-11-19T15:06:52;12.60;99.90
3923;DHT22;1976;51.694;6.256;2023-11-19T15:09:17;12.60;99.90
3923;DHT22;1976;51.694;6.256;2023-11-19T15:11:46;12.50;99.90
3923;DHT22;1976;51.694;6.256;2023-11-19T15:14:15;12.50;99.90
3923;DHT22;1976;51.694;6.256;2023-11-19T15:16:47;12.60;99.90
3923;DHT22;1976;51.694;6.256;2023-11-19T15:19:13;12.60;99.90
3923;DHT22;1976;51.694;6.256;2023-11-19T15:21:42;12.60;99.90
3923;DHT22;1976;51.694;6.256;2023-11-19T15:24:08;12.60;99.90
3923;DHT22;1976;51.694;6.256;2023-11-19T15:26:35;12.60;99.90
3923;DHT22;1976;51.694;6.256;2023-11-19T15:29:01;12.50;99.90
3923;DHT22;1976;51.694;6.256;2023-11-19T15:31:26;12.50;99.90
3923;DHT22;1976;51.694;6.256;2023-11-19T15:33:52;12.50;99.90
3923;DHT22;1976;51.694;6.256;2023-11-19T15:36:18;12.40;99.90
3923;DHT22;1976;51.694;6.256;2023-11-19T15:38:44;12.40;99.90
3923;DHT22;1976;51.694;6.256;2023-11-19T15:41:10;12.40;99.90
3923;DHT22;1976;51.694;6.256;2023-11-19T15:43:35;12.40;99.90
3923;DHT22;1976;51.694;6.256;2023-11-19T15:46:05;12.30;99.90
3923;DHT22;1976;51.694;6.256;2023-11-19T15:48:30;12.40;99.90
3923;DHT22;1976;51.694;6.256;2023-11-19T15:50:56;12.40;99.90
3923;DHT22;1976;51.694;6.256;2023-11-19T15:53:21;12.30;99.90
3923;DHT22;1976;51.694;6.256;2023-11-19T15:55:47;12.30;99.90
3923;DHT22;1976;51.694;6.256;2023-11-19T15:58:13;12.30;99.90
3923;DHT22;1976;51.694;6.256;2023-11-19T16:00:38;12.30;99.90
3923;DHT22;1976;51.694;6.256;2023-11-19T16:03:06;12.30;99.90
3923;DHT22;1976;51.694;6.256;2023-11-19T16:05:32;12.20;99.90
3923;DHT22;1976;51.694;6.256;2023-11-19T16:07:58;12.30;99.90
3923;DHT22;1976;51.694;6.256;2023-11-19T16:10:23;12.20;99.90
3923;DHT22;1976;51.694;6.256;2023-11-19T16:12:49;12.20;99.90
3923;DHT22;1976;51.694;6.256;2023-11-19T16:15:14;12.20;99.90
3923;DHT22;1976;51.694;6.256;2023-11-19T16:17:43;12.00;99.90
3923;DHT22;1976;51.694;6.256;2023-11-19T16:20:10;12.00;99.90
3923;DHT22;1976;51.694;6.256;2023-11-19T16:22:39;11.90;99.90
3923;DHT22;1976;51.694;6.256;2023-11-19T16:25:05;11.90;99.90